Weather observations for the past three days for
Plant City, Plant City Municipal Airport
Metric (Imperial)
Date Time (edt) Wind (kph) Vis. (km) Weather Sky Cond. Temperature (ºC) Relative Humidity Wind Chill (°C) Heat Index (°C) Pressure Precipitation (cm)
Air Dwpt 6 hour altimeter (cm) sea level (mb) 1 hr 3 hr 6 hr
Max. Min.
02 12:15 N 13 16.09 Partly Cloudy FEW030 SCT080 30.2 25.5 76% 37 76.25 0.0
02 11:55 N 9 16.09 A Few Clouds FEW021 30.4 25.1 73% 37 76.28 0.0
02 11:35 N 13 16.09 A Few Clouds FEW021 30.3 25.6 76% 37 76.3 0.0
02 11:15 N 7 16.09 Fair CLR 29.2 25.6 81% 36 76.3 0.0
02 10:55 N 7 16.09 A Few Clouds FEW014 28.8 26.2 86% 35 76.3 0.0 0.03 0.03
02 10:35 N 9 16.09 Mostly Cloudy SCT012 BKN018 28.8 26.3 86% 36 76.3 0.0
02 10:15 Vrbl 7 16.09 Overcast OVC011 28.8 26.5 87% 36 76.28 0.0
02 09:55 N 9 16.09 Overcast OVC008 28.1 27 94% 35 76.3 0.0
02 09:35 N 9 16.09 Overcast OVC007 27.5 27 97% 33 76.3 0.0
02 09:15 NE 11 16.09 Overcast OVC006 26.4 26.4 100% 30 76.28 0.0
02 08:55 N 9 16.09 Overcast OVC004 25.7 25.7 100% 27 76.28 0.0
02 08:35 NE 9 14.48 Overcast OVC003 25.3 25.3 100% 26 76.28 0.0
02 08:15 N 7 12.87 Mostly Cloudy BKN003 25.1 25.1 100% 26 76.28 0.0
02 07:55 NE 7 14.48 Partly Cloudy FEW004 SCT190 24.9 24.9 25.4 24.4 100% 25 76.25 0.0 0.03 0.05
02 07:35 N 6 14.48 Overcast SCT004 OVC190 24.7 24.7 100% 24 76.25 0.0
02 07:15 Calm 16.09 Overcast BKN004 OVC190 24.6 24.6 100% 24 76.23 0.0
02 06:55 NW 6 16.09 Mostly Cloudy BKN190 24.5 24.5 100% 24 76.23 0.0
02 06:35 N 6 16.09 Partly Cloudy SCT190 24.5 24.5 100% 24 76.2 0.0
02 06:15 N 6 16.09 Fair CLR 24.4 24.4 100% 24 76.2 0.0
02 05:55 N 7 16.09 Fair CLR 24.4 24.4 100% 24 76.2 0.0
02 05:35 NE 6 16.09 Fair CLR 24.4 24.4 100% 24 76.2 0.0
02 05:15 N 6 16.09 Fair CLR 24.4 24.4 100% 24 76.17 0.0
02 04:55 N 7 16.09 Fair CLR 24.5 24.5 100% 24 76.15 0.0 0.03
02 04:35 N 7 16.09 Fair CLR 24.6 24.6 100% 24 76.15 0.0
02 04:15 Calm 16.09 Partly Cloudy SCT210 SCT240 24.7 24.7 100% 24 76.17 0.0
02 03:55 N 6 16.09 Mostly Cloudy BKN210 24.8 24.8 100% 25 76.17 0.0 0.03
02 03:35 Calm 16.09 Partly Cloudy SCT220 24.9 24.9 100% 25 76.17 0.0 0.03
02 03:15 Calm 16.09 A Few Clouds FEW220 25 25 100% 25 76.2 0.0
02 02:55 N 6 16.09 Fair CLR 25.1 25.1 100% 26 76.2 0.0
02 02:15 N 6 16.09 Fair CLR 25.2 25.2 100% 26 76.2 0.0
02 01:55 N 6 16.09 Fair CLR 25.4 25.4 26.3 25.4 100% 27 76.23 0.0
02 01:35 N 6 16.09 Fair CLR 25.5 25.5 100% 27 76.23 0.0
02 01:15 NW 6 16.09 Fair CLR 25.6 25.6 100% 27 76.23 0.0
02 00:55 Calm 16.09 A Few Clouds FEW070 25.7 25.7 100% 27 76.23 0.0
02 00:35 Calm 16.09 Partly Cloudy SCT070 25.5 25.5 100% 27 76.23 0.0
02 00:15 Calm 16.09 A Few Clouds FEW070 25.5 25.5 100% 27 76.23 0.0
01 23:55 Calm 16.09 Fair CLR 25.8 25.8 100% 28 76.28 0.0
01 23:35 Calm 16.09 A Few Clouds FEW036 25.9 25.9 100% 28 76.28 0.0
01 23:15 N 6 16.09 A Few Clouds FEW035 25.9 25.9 100% 28 76.3 0.0
01 22:55 Calm 16.09 Mostly Cloudy BKN230 25.8 25.8 100% 28 76.3 0.0
01 22:35 Calm 16.09 Mostly Cloudy BKN230 25.8 25.8 100% 28 76.28 0.0
01 22:15 Calm 16.09 Fair CLR 26.2 26.2 100% 29 76.28 0.0
01 21:55 Calm 16.09 A Few Clouds FEW030 26 26 100% 28 76.28 0.0
01 21:35 SE 6 16.09 Partly Cloudy SCT034 26.1 26.1 100% 29 76.25 0.0
01 21:15 Calm 16.09 Partly Cloudy FEW041 SCT150 26 26 100% 28 76.25 0.0
01 20:55 N 6 16.09 Mostly Cloudy BKN036 BKN150 26.1 26.1 100% 29 76.25 0.0
01 20:35 NE 6 12.87 Light Rain SCT036 26.1 26.1 100% 29 76.25 0.0
01 20:15 NE 6 14.48 Light Rain SCT140 26 26 100% 28 76.23 0.0
01 19:55 Calm 14.48 Overcast FEW120 OVC150 26.2 26.1 31.7 25.9 99% 29 76.23 0.0 0.05
01 19:35 NW 6 16.09 Overcast FEW110 OVC150 26.3 26 98% 29 76.23 0.0
01 19:15 NE 6 14.48 Overcast SCT150 OVC170 26 25.8 99% 28 76.17 0.0
01 18:55 N 9 11.27 Light Rain SCT090 SCT100 BKN170 26.1 25.4 96% 29 76.2 0.0 0.03
01 18:35 N 9 8.05 Light Rain Fog/Mist Thunderstorm in Vicinity OVC090 25.9 25.1 95% 28 76.2 0.0
01 18:15 NE 11 6.44 Light Rain Fog/Mist Thunderstorm in Vicinity BKN085 OVC110 26.4 25.3 94% 29 76.2 0.0
01 17:55 NE 22 16.09 Mostly Cloudy FEW028 SCT060 BKN110 29.1 25 79% 35 76.17 0.0 0.03
01 17:35 NE 19 16.09 Mostly Cloudy FEW028 SCT110 BKN180 29.9 25.2 76% 36 76.17 0.0 0.03
01 17:15 NE 17 14.48 Thunderstorm in Vicinity FEW030 BKN180 30.2 25 74% 37 76.12 0.0
01 16:55 NE 19 16.09 Thunderstorm in Vicinity FEW220 31.1 24.3 67% 37 76.15 0.0
01 16:35 NE 15 16.09 A Few Clouds FEW220 31.4 24 65% 37 76.15 0.0
01 16:15 NE 17 16.09 Fair CLR 31.6 24 64% 37 76.15 0.0
01 15:55 NE 13 16.09 A Few Clouds FEW210 31.2 24.4 67% 37 76.15 0.0
01 15:35 NE 15 16.09 Mostly Cloudy BKN220 BKN240 31.2 24.6 68% 38 76.17 0.0
01 15:15 NE 13 16.09 Mostly Cloudy FEW180 BKN220 BKN250 30.5 24.4 70% 36 76.2 0.0
01 14:55 NE 20 16.09 Mostly Cloudy BKN170 29.6 24.4 74% 35 76.23 0.0
01 14:35 NE 17 16.09 Partly Cloudy SCT170 SCT360 30.6 24.6 70% 37 76.23 0.0
01 14:15 NE 17 16.09 A Few Clouds FEW040 30.2 25.8 77% 38 76.25 0.0
01 13:55 NE 22 G 31 16.09 Partly Cloudy SCT033 30.2 25.6 32.1 24.2 76% 37 76.28 0.0 0.03
01 13:35 NE 20 G 31 16.09 Mostly Cloudy BKN033 BKN046 29.7 24.9 75% 36 76.3 0.0
01 13:15 N 7 16.09 Mostly Cloudy SCT031 BKN060 BKN090 31.3 24.9 69% 38 76.3 0.0
01 12:55 Vrbl 9 16.09 A Few Clouds FEW031 31.3 24.3 66% 37 76.3 0.0
01 12:35 Vrbl 7 16.09 Fair CLR 31.2 25.1 70% 38 76.33 0.0
01 12:15 NW 9 16.09 A Few Clouds FEW022 30.5 25.1 73% 37 76.33 0.0
01 11:55 NW 9 16.09 Partly Cloudy SCT018 30.4 25.8 76% 38 76.35 0.0
01 11:35 N 9 16.09 Partly Cloudy SCT018 29.1 25.6 81% 35 76.38 0.0
01 11:15 NE 7 16.09 Fair CLR 28.9 25.5 82% 35 76.38 0.0
01 10:55 Calm 16.09 Partly Cloudy SCT008 27.7 26.7 94% 33 76.38 0.0 0.03
01 10:35 NE 7 16.09 Overcast OVC007 27.4 27.1 98% 33 76.35 0.0
01 10:15 N 7 16.09 Overcast OVC007 26.4 26.4 100% 30 76.35 0.0
01 09:55 N 9 16.09 Overcast OVC006 26.2 26.2 100% 29 76.35 0.0 0.03
01 09:35 NE 9 16.09 Overcast OVC005 25.9 25.9 100% 28 76.35 0.0 0.03
01 09:15 N 6 16.09 Overcast OVC004 25.5 25.5 100% 27 76.33 0.0 0.03
01 08:55 NE 7 16.09 Mostly Cloudy BKN003 24.9 24.9 100% 25 76.3 0.0
01 08:35 N 6 14.48 Mostly Cloudy BKN002 24.7 24.7 100% 24 76.3 0.0
01 08:15 Calm 11.27 Overcast OVC002 24.4 24.4 100% 24 76.3 0.0
01 07:55 N 6 4.83 Fog/Mist OVC002 24.2 24.2 24.3 23.6 100% 23 76.28 0.0
01 07:35 NE 6 6.44 Fog/Mist OVC002 24.1 24.1 100% 23 76.28 0.0
01 07:15 N 6 2.41 Fog/Mist OVC002 24.1 24.1 100% 23 76.28 0.0
01 06:55 NE 9 1.21 Fog/Mist VV002 24.1 24.1 100% 23 76.25 0.0
01 06:35 NE 6 0.80 Fog VV002 23.9 23.9 100% 22 76.25 0.0
01 06:15 N 6 2.01 Fog/Mist OVC002 24 24 100% 23 76.23 0.0
01 05:55 N 6 16.09 Partly Cloudy SCT002 23.8 23.8 100% 76.23 0.0
01 05:35 Calm 16.09 Fair CLR 23.8 23.8 100% 76.23 0.0
01 05:15 Calm 16.09 Mostly Cloudy BKN002 23.8 23.8 100% 76.2 0.0
01 04:55 NE 6 16.09 Partly Cloudy SCT003 23.7 23.7 100% 76.2 0.0
01 04:35 NE 6 16.09 Fair CLR 23.6 23.6 100% 76.17 0.0
01 04:15 Calm 16.09 Fair CLR 23.7 23.7 100% 76.17 0.0
01 03:55 Calm 16.09 Fair CLR 23.8 23.8 100% 76.2 0.0
01 03:35 N 7 16.09 Fair CLR 23.9 23.9 100% 22 76.23 0.0
01 03:15 N 6 16.09 Fair CLR 24 24 100% 23 76.23 0.0
01 02:55 N 6 16.09 Fair CLR 24.1 24.1 100% 23 76.25 0.0
01 02:35 N 7 16.09 Fair CLR 24.2 24.2 100% 23 76.25 0.0
01 02:15 NE 6 16.09 Fair CLR 24.2 24.2 100% 23 76.28 0.0
01 01:55 N 6 16.09 Fair CLR 24.3 24.3 25.4 24.3 100% 23 76.3 0.0
01 01:35 NE 6 16.09 A Few Clouds FEW110 24.3 24.3 100% 23 76.3 0.0
01 01:15 NE 7 16.09 Partly Cloudy SCT110 24.3 24.3 100% 23 76.33 0.0
01 00:55 N 6 16.09 A Few Clouds FEW100 24.5 24.5 100% 24 76.33 0.0
01 00:35 N 6 16.09 Mostly Cloudy SCT100 BKN220 24.5 24.5 100% 24 76.35 0.0
01 00:15 NW 6 16.09 Partly Cloudy FEW100 SCT220 24.7 24.7 100% 24 76.35 0.0
31 23:55 NE 6 16.09 Fair CLR 24.7 24.7 100% 24 76.35 0.0
31 23:35 Calm 16.09 Fair CLR 24.7 24.7 100% 24 76.35 0.0
31 23:15 Calm 16.09 A Few Clouds FEW110 24.7 24.7 100% 24 76.35 0.0
31 22:55 N 6 16.09 A Few Clouds FEW110 24.8 24.8 100% 25 76.38 0.0
31 22:35 N 7 16.09 Fair CLR 24.9 24.9 100% 25 76.38 0.0
31 22:15 Calm 16.09 Partly Cloudy SCT220 25 25 100% 25 76.35 0.0
31 21:55 Calm 16.09 Overcast SCT160 OVC220 25 25 100% 25 76.35 0.0
31 21:35 W 6 16.09 Overcast BKN160 OVC230 25 25 100% 25 76.33 0.0
31 21:15 Calm 16.09 Partly Cloudy SCT170 25.1 25.1 100% 26 76.3 0.0
31 20:55 Calm 16.09 Partly Cloudy SCT180 25.1 25.1 100% 26 76.3 0.0
31 20:35 Calm 16.09 A Few Clouds FEW150 25.3 25.3 100% 26 76.28 0.0
31 20:15 Calm 16.09 Mostly Cloudy BKN160 25.1 25.1 100% 26 76.3 0.0
31 19:55 S 6 16.09 Mostly Cloudy BKN160 25.3 25.3 33.5 24.4 100% 26 76.28 0.0 0.03 0.13
31 19:35 Calm 16.09 Mostly Cloudy BKN160 25.2 25.2 100% 26 76.3 0.0 0.03
31 19:15 E 6 14.48 Overcast OVC160 25 25 100% 25 76.28 0.0
31 18:55 Calm 11.27 Light Rain BKN160 24.9 24.9 100% 25 76.28 0.0
31 18:35 Calm 16.09 Mostly Cloudy SCT110 SCT130 BKN160 25.1 25.1 100% 26 76.3 0.0
31 18:15 Calm 16.09 Overcast SCT085 BKN110 OVC130 24.8 24.8 100% 25 76.3 0.0
31 17:55 E 7 12.87 Light Rain Thunderstorm in Vicinity OVC090 24.6 24.6 100% 24 76.28 0.0 0.03
31 17:35 E 7 8.05 Light Rain Fog/Mist Thunderstorm in Vicinity OVC080 24.6 24.6 100% 24 76.28 0.0 0.03
31 17:15 NE 15 2.01 Rain Fog/Mist Thunderstorm in Vicinity OVC039 24.5 24.5 100% 24 76.28 0.0 0.03
31 16:55 NE 33 G 52 0.40 Heavy Rain Fog Thunderstorm in Vicinity and Breezy BKN015 BKN022 OVC027 24.6 24.6 100% 24 76.3 0.0 0.08 0.08
31 16:35 E 33 G 46 8.05 Light Rain Fog/Mist Thunderstorm in Vicinity and Breezy SCT021 BKN027 BKN036 BKN120 26.4 25 92% 29 76.25 0.0
31 16:15 N 7 16.09 Partly Cloudy FEW065 SCT120 32.6 22.9 57% 37 76.2 0.0
31 15:55 NE 11 16.09 Mostly Cloudy BKN055 BKN120 32.5 23.2 58% 38 76.2 0.0
31 15:35 Calm 16.09 Mostly Cloudy BKN050 32.7 22.6 55% 37 76.2 0.0
31 15:15 Calm 16.09 A Few Clouds FEW047 32.5 22.4 55% 37 76.2 0.0
31 14:55 W 9 16.09 A Few Clouds FEW046 32.7 23 57% 38 76.23 0.0
31 14:35 SE 6 16.09 Fair CLR 32.6 22.7 56% 37 76.23 0.0
31 14:15 Calm 16.09 Partly Cloudy FEW043 SCT070 32.4 23.4 59% 38 76.25 0.0
31 13:35 Vrbl 6 16.09 Mostly Cloudy FEW039 BKN055 32 23.5 61% 37 76.3 0.0
31 13:15 Calm 16.09 Mostly Cloudy BKN037 31.8 23.5 61% 37 76.33 0.0
31 12:55 SE 7 16.09 A Few Clouds FEW038 31.5 23.3 62% 36 76.35 0.0
31 12:35 Vrbl 9 16.09 Fair CLR 31.2 23.7 64% 36 76.38 0.0
31 12:15 SE 11 16.09 A Few Clouds FEW032 31.1 23.8 65% 36 76.38 0.0
31 11:55 E 13 16.09 A Few Clouds FEW028 31.1 24.5 68% 37 76.38 0.0
31 11:35 Vrbl 7 16.09 A Few Clouds FEW026 30.4 23.8 68% 35 76.38 0.0
31 11:15 Calm 16.09 A Few Clouds FEW026 29.9 24.3 72% 35 76.38 0.0
31 10:55 Vrbl 6 16.09 Fair CLR 29.3 24.3 75% 34 76.38 0.0
31 10:35 NE 7 16.09 Fair CLR 29.3 24.8 77% 35 76.38 0.0
31 10:15 Calm 16.09 Fair CLR 28.9 24.5 77% 34 76.38 0.0
31 09:55 Calm 16.09 Fair CLR 27.9 24.1 80% 32 76.38 0.0
31 09:35 NE 6 16.09 Fair CLR 27.6 24.1 81% 31 76.38 0.0
31 09:15 NE 6 16.09 Fair CLR 26.8 25 90% 30 76.38 0.0
31 08:55 N 6 16.09 Fair CLR 25.5 25.5 100% 27 76.38 0.0
31 08:35 Calm 16.09 Fair CLR 24.9 24.9 100% 25 76.35 0.0
31 08:15 NE 7 16.09 Fair CLR 24.1 24.1 100% 23 76.35 0.0
31 07:55 Calm 16.09 Fair CLR 23.5 23.5 24.2 23.3 100% 76.33 0.0 0.03 0.05
31 07:15 N 6 12.87 Fair CLR 23.4 23.4 100% 76.28 0.0
31 06:55 N 6 16.09 Fair CLR 23.5 23.5 100% 76.25 0.0
31 06:35 Calm 16.09 Fair CLR 23.5 23.5 100% 76.23 0.0
31 06:15 Calm 16.09 Fair CLR 23.5 23.5 100% 76.23 0.0
31 05:55 Calm 16.09 Fair CLR 23.6 23.6 100% 76.23 0.0 0.03
31 05:35 Calm 16.09 Fair CLR 23.4 23.4 100% 76.23 0.0 0.03
31 05:15 Calm 16.09 Fair CLR 24 24 100% 23 76.23 0.0 0.03
31 04:55 Calm 16.09 Fair CLR 23.8 23.8 100% 76.23 0.0
31 04:35 Calm 16.09 Fair CLR 24 24 100% 23 76.23 0.0
31 04:15 NE 6 16.09 Fair CLR 24 24 100% 23 76.23 0.0
31 03:55 NE 6 16.09 Fair CLR 23.9 23.9 100% 22 76.23 0.0
31 03:35 Calm 16.09 Fair CLR 23.8 23.8 100% 76.23 0.0
31 03:15 E 6 16.09 Fair CLR 23.7 23.7 100% 76.25 0.0
31 02:55 Calm 16.09 Fair CLR 23.9 23.9 100% 22 76.25 0.0
31 02:35 Calm 16.09 Fair CLR 23.7 23.7 100% 76.25 0.0
31 02:15 Calm 16.09 Fair CLR 24.2 24.2 100% 23 76.28 0.0
31 01:55 NE 6 16.09 Fair CLR 24 24 24.5 23.5 100% 23 76.3 0.0
31 01:35 Calm 16.09 Fair CLR 24.1 24.1 100% 23 76.3 0.0
31 01:15 E 6 16.09 Fair CLR 24 24 100% 23 76.3 0.0
31 00:55 E 6 16.09 Fair CLR 23.7 23.7 100% 76.3 0.0
31 00:35 E 7 16.09 Fair CLR 23.7 23.7 100% 76.33 0.0
31 00:15 E 7 16.09 Fair CLR 23.6 23.6 100% 76.33 0.0
30 23:55 Calm 16.09 Fair CLR 23.6 23.6 100% 76.33 0.0
30 23:35 Calm 16.09 Fair CLR 23.7 23.7 100% 76.35 0.0
30 23:15 Calm 16.09 Fair CLR 23.9 23.9 100% 22 76.33 0.0
30 22:55 Calm 16.09 Fair CLR 23.9 23.9 100% 22 76.33 0.0
30 22:35 Calm 16.09 Fair CLR 23.9 23.9 100% 22 76.35 0.0
30 22:15 NE 6 16.09 Fair CLR 24.1 24.1 100% 23 76.35 0.0
30 21:55 NE 6 16.09 Fair CLR 24.1 24.1 100% 23 76.35 0.0
30 21:35 NE 6 16.09 Fair CLR 24.2 24.2 100% 23 76.35 0.0
30 21:15 NE 6 16.09 A Few Clouds FEW200 24.1 24.1 100% 23 76.35 0.0
30 20:55 E 6 16.09 Fair CLR 24 24 100% 23 76.35 0.0
30 20:35 NE 6 16.09 Fair CLR 24.5 24.5 100% 24 76.33 0.0
30 20:15 Calm 16.09 Fair CLR 24.3 24.3 100% 23 76.33 0.0
30 19:55 Calm 16.09 Fair CLR 24.5 24.5 33.1 24.2 100% 24 76.3 0.0 0.03
30 19:35 Calm 16.09 Fair CLR 24.5 24.5 100% 24 76.3 0.0
30 19:15 N 7 16.09 Fair CLR 24.5 24.5 100% 24 76.28 0.0
30 18:55 NE 6 11.27 Light Rain SCT095 24.5 24.5 100% 24 76.28 0.0 0.03
30 18:35 Calm 8.05 Light Rain Fog/Mist BKN095 24.6 24.4 99% 24 76.28 0.0 0.03
30 18:15 Calm 4.83 Light Rain Fog/Mist OVC090 24.6 24.6 100% 24 76.3 0.0
30 17:55 S 11 9.66 Light Rain Fog/Mist Thunderstorm in Vicinity FEW080 BKN095 OVC120 24.9 24.7 99% 25 76.25 0.0
30 17:35 SE 11 8.05 Light Rain Fog/Mist BKN090 OVC120 24.4 24.4 100% 24 76.23 0.0
30 17:15 SE 13 9.66 Light Rain Fog/Mist Thunderstorm in Vicinity OVC090 24.7 24.7 100% 24 76.25 0.0
30 16:55 SE 13 6.44 Light Rain Fog/Mist FEW006 SCT042 SCT049 BKN060 OVC080 24.6 24.6 100% 24 76.28 0.0
30 16:35 SE 35 G 48 8.05 Thunderstorm Light Rain Fog/Mist and Breezy FEW006 SCT037 OVC046 24.7 24.7 100% 24 76.28 0.0
30 16:15 E 35 G 46 14.48 Thunderstorm in Vicinity and Breezy FEW043 BKN055 BKN065 OVC085 30.8 24.1 67% 36 76.23 0.0
30 15:55 E 9 16.09 Partly Cloudy SCT045 SCT055 32.9 24.1 60% 39 76.2 0.0
30 15:35 Vrbl 9 16.09 A Few Clouds FEW041 33 23.7 58% 39 76.2 0.0
30 15:15 NE 15 16.09 Partly Cloudy SCT041 SCT055 32.3 24.3 63% 39 76.23 0.0
30 14:55 E 15 16.09 Mostly Cloudy BKN041 BKN049 32.6 24.1 61% 39 76.28 0.0
30 14:35 S 7 16.09 Partly Cloudy SCT039 SCT049 32.3 23.9 61% 38 76.28 0.0
30 14:15 Calm 16.09 Partly Cloudy SCT036 31.9 23.5 61% 37 76.3 0.0
30 13:55 S 7 16.09 Partly Cloudy FEW034 SCT055 SCT070 31.3 24.1 31.7 23.1 66% 37 76.33 0.0
30 13:35 E 11 16.09 Mostly Cloudy SCT049 BKN060 31.4 24.8 68% 38 76.33 0.0
30 13:15 SE 13 16.09 Mostly Cloudy FEW033 SCT047 BKN060 30.7 24.3 69% 36 76.35 0.0
30 12:55 SE 11 16.09 Mostly Cloudy SCT034 SCT047 BKN060 30.8 24.4 69% 37 76.38 0.0
30 12:35 E 7 16.09 Partly Cloudy SCT035 30 24.4 72% 36 76.38 0.0
Date Time (edt) Wind (kph) Vis. (km) Weather Sky Cond. Air Dwpt Max. Min. Relative Humidity Wind Chill (°C) Heat Index (°C) altimeter (cm) sea level (mb) 1 hr 3 hr 6 hr
6 hour
Temperature (ºC) Pressure Precipitation (cm)